createdAt,value
2023-03-21T00:00:02.058Z,93
2023-03-21T00:16:09.345Z,93
2023-03-21T00:31:01.987Z,94
2023-03-21T00:46:02.008Z,94
2023-03-21T01:00:02.016Z,94
2023-03-21T01:16:02.047Z,93
2023-03-21T01:31:02.045Z,94
2023-03-21T01:46:02.034Z,94
2023-03-21T02:00:02.032Z,94
2023-03-21T02:16:01.987Z,94
2023-03-21T02:31:02.024Z,94
2023-03-21T02:46:02.058Z,94
2023-03-21T03:00:07.702Z,94
2023-03-21T03:16:02.016Z,94
2023-03-21T03:31:09.108Z,94
2023-03-21T03:46:01.996Z,94
2023-03-21T04:00:01.960Z,94
2023-03-21T04:16:01.976Z,94
2023-03-21T04:31:08.759Z,94
2023-03-21T04:46:02.081Z,94
2023-03-21T05:00:01.920Z,95
2023-03-21T05:16:01.983Z,94
2023-03-21T05:31:01.990Z,95
2023-03-21T05:46:01.997Z,95
2023-03-21T06:00:01.953Z,95
2023-03-21T06:16:02.205Z,95
2023-03-21T06:31:02.054Z,95
2023-03-21T06:46:02.003Z,95
2023-03-21T07:00:01.999Z,95
2023-03-21T07:16:02.060Z,96
2023-03-21T07:31:02.031Z,96
2023-03-21T07:46:02.798Z,96
2023-03-21T08:00:01.971Z,96
2023-03-21T08:16:02.028Z,96
2023-03-21T08:31:02.013Z,94
2023-03-21T08:46:02.057Z,87
2023-03-21T09:00:02.037Z,78
2023-03-21T09:16:02.033Z,74
2023-03-21T09:31:02.038Z,71
2023-03-21T09:46:12.398Z,67
2023-03-21T10:00:01.937Z,66
2023-03-21T10:16:02.020Z,63
2023-03-21T10:31:02.001Z,61
2023-03-21T10:46:02.079Z,58
2023-03-21T11:00:02.080Z,55
2023-03-21T11:16:01.957Z,55
2023-03-21T11:31:04.390Z,54
2023-03-21T11:46:02.005Z,52
2023-03-21T12:00:01.978Z,49
2023-03-21T12:16:02.099Z,50
2023-03-21T12:31:02.024Z,48
2023-03-21T12:46:01.998Z,47
2023-03-21T13:00:01.971Z,46
2023-03-21T13:16:01.998Z,45
2023-03-21T13:31:01.998Z,43
2023-03-21T13:46:02.057Z,43
2023-03-21T14:00:01.950Z,42
2023-03-21T14:16:03.213Z,43
2023-03-21T14:31:02.068Z,41
2023-03-21T14:46:02.098Z,42
2023-03-21T15:00:02.051Z,43
2023-03-21T15:16:01.998Z,43
2023-03-21T15:31:02.014Z,43
2023-03-21T15:46:01.958Z,43
2023-03-21T16:00:02.042Z,43
2023-03-21T16:16:02.096Z,43
2023-03-21T16:31:01.933Z,45
2023-03-21T16:46:02.049Z,47
2023-03-21T17:00:02.243Z,49
2023-03-21T17:16:01.956Z,50
2023-03-21T17:31:02.243Z,52
2023-03-21T17:46:01.975Z,55
2023-03-21T18:00:01.959Z,55
2023-03-21T18:16:02.654Z,58
2023-03-21T18:31:14.899Z,59
2023-03-21T18:46:01.944Z,61
2023-03-21T19:00:02.016Z,64
2023-03-21T19:16:02.578Z,65
2023-03-21T19:31:01.977Z,67
2023-03-21T19:46:02.121Z,69
2023-03-21T20:00:01.925Z,71
2023-03-21T20:16:04.001Z,73
2023-03-21T20:31:02.013Z,74
2023-03-21T20:46:02.116Z,76
2023-03-21T21:00:01.937Z,77
2023-03-21T21:16:02.025Z,78
2023-03-21T21:31:02.027Z,79
2023-03-21T21:46:01.955Z,79
2023-03-21T22:00:01.972Z,80
2023-03-21T22:16:01.992Z,80
2023-03-21T22:31:02.005Z,80
2023-03-21T22:46:03.047Z,81
2023-03-21T23:00:02.201Z,81
2023-03-21T23:16:02.058Z,81
2023-03-21T23:31:01.971Z,81
2023-03-21T23:46:01.937Z,81
